LFRZ 181530Z AUTO 28014KT CAVOK 24/17 Q1016 NOSIG

ElémentsDécodage
LFRZ Station météo située sur l'aérodrome de SAINT-NAZAIRE Montoir
181530Z émis le 18 du mois à 15h30 UTC
AUTO Bulletin édité par un automate
28014KT vent du 280°, 14 noeuds
CAVOK Ceiling And Visibility OK
- Visibilité de 10 Km ou plus
- Pas de nuage au-dessous de 1500m ou au-dessous de l'altitude minimale du secteur la plus élevée (si>1500m) et absence de CB
- pas de temps présent significatif
24/17 température 24°C, point de rosée 17°C
 soit une humidité relative de 65%
Q1016 la pression au niveau de la mer (QNH) est de 1016 hPa
NOSIG Pas de changement significatif prévu au cours des deux heures suivant l'heure de l'observation